sensor_id;sensor_type;location;lat;lon;timestamp;P1;durP1;ratioP1;P2;durP2;ratioP2
59147;SDS011;44930;52.878;6.168;2023-04-25T00:02:06;21.23;;;4.75;;
59147;SDS011;44930;52.878;6.168;2023-04-25T00:04:32;21.38;;;3.90;;
59147;SDS011;44930;52.878;6.168;2023-04-25T00:06:58;17.70;;;5.22;;
59147;SDS011;44930;52.878;6.168;2023-04-25T00:09:26;18.80;;;4.18;;
59147;SDS011;44930;52.878;6.168;2023-04-25T00:11:52;11.50;;;3.00;;
59147;SDS011;44930;52.878;6.168;2023-04-25T00:14:18;17.02;;;3.55;;
59147;SDS011;44930;52.878;6.168;2023-04-25T00:16:44;17.75;;;3.42;;
59147;SDS011;44930;52.878;6.168;2023-04-25T00:19:09;22.25;;;3.75;;
59147;SDS011;44930;52.878;6.168;2023-04-25T00:21:35;19.48;;;3.35;;
59147;SDS011;44930;52.878;6.168;2023-04-25T00:24:02;11.98;;;3.10;;
59147;SDS011;44930;52.878;6.168;2023-04-25T00:26:29;16.92;;;3.60;;
59147;SDS011;44930;52.878;6.168;2023-04-25T00:28:55;10.95;;;3.03;;
59147;SDS011;44930;52.878;6.168;2023-04-25T00:31:20;13.25;;;3.25;;
59147;SDS011;44930;52.878;6.168;2023-04-25T00:33:46;13.50;;;3.28;;
59147;SDS011;44930;52.878;6.168;2023-04-25T00:36:12;12.07;;;4.07;;
59147;SDS011;44930;52.878;6.168;2023-04-25T00:38:38;19.85;;;2.72;;
59147;SDS011;44930;52.878;6.168;2023-04-25T00:41:05;19.05;;;3.60;;
59147;SDS011;44930;52.878;6.168;2023-04-25T00:43:32;19.67;;;3.38;;
59147;SDS011;44930;52.878;6.168;2023-04-25T00:45:59;12.77;;;3.15;;
59147;SDS011;44930;52.878;6.168;2023-04-25T00:48:26;11.25;;;3.13;;
59147;SDS011;44930;52.878;6.168;2023-04-25T00:50:52;11.68;;;3.28;;
59147;SDS011;44930;52.878;6.168;2023-04-25T00:53:22;11.32;;;2.97;;
59147;SDS011;44930;52.878;6.168;2023-04-25T00:55:49;18.45;;;4.78;;
59147;SDS011;44930;52.878;6.168;2023-04-25T00:58:16;14.75;;;4.45;;
59147;SDS011;44930;52.878;6.168;2023-04-25T01:00:46;14.23;;;3.15;;
59147;SDS011;44930;52.878;6.168;2023-04-25T01:03:14;15.43;;;5.05;;
59147;SDS011;44930;52.878;6.168;2023-04-25T01:05:45;24.73;;;5.72;;
59147;SDS011;44930;52.878;6.168;2023-04-25T01:08:12;13.93;;;3.30;;
59147;SDS011;44930;52.878;6.168;2023-04-25T01:10:38;20.02;;;3.78;;
59147;SDS011;44930;52.878;6.168;2023-04-25T01:13:03;19.98;;;3.40;;
59147;SDS011;44930;52.878;6.168;2023-04-25T01:15:29;16.85;;;3.10;;
59147;SDS011;44930;52.878;6.168;2023-04-25T01:17:55;16.90;;;3.83;;
59147;SDS011;44930;52.878;6.168;2023-04-25T01:20:22;16.30;;;3.53;;
59147;SDS011;44930;52.878;6.168;2023-04-25T01:22:48;13.35;;;3.05;;
59147;SDS011;44930;52.878;6.168;2023-04-25T01:25:14;16.30;;;4.80;;
59147;SDS011;44930;52.878;6.168;2023-04-25T01:27:41;12.55;;;3.55;;
59147;SDS011;44930;52.878;6.168;2023-04-25T01:30:07;12.82;;;3.15;;
59147;SDS011;44930;52.878;6.168;2023-04-25T01:32:34;10.15;;;3.15;;
59147;SDS011;44930;52.878;6.168;2023-04-25T01:35:06;20.83;;;2.95;;
59147;SDS011;44930;52.878;6.168;2023-04-25T01:37:34;16.45;;;3.42;;
59147;SDS011;44930;52.878;6.168;2023-04-25T01:40:01;19.25;;;4.75;;
59147;SDS011;44930;52.878;6.168;2023-04-25T01:42:27;17.17;;;3.00;;
59147;SDS011;44930;52.878;6.168;2023-04-25T01:44:53;19.05;;;3.65;;
59147;SDS011;44930;52.878;6.168;2023-04-25T01:47:18;13.32;;;3.80;;
59147;SDS011;44930;52.878;6.168;2023-04-25T01:49:44;14.13;;;3.55;;
59147;SDS011;44930;52.878;6.168;2023-04-25T01:52:10;14.60;;;2.88;;
59147;SDS011;44930;52.878;6.168;2023-04-25T01:54:35;13.30;;;3.40;;
59147;SDS011;44930;52.878;6.168;2023-04-25T01:57:01;23.58;;;3.97;;
59147;SDS011;44930;52.878;6.168;2023-04-25T01:59:26;20.23;;;4.45;;
59147;SDS011;44930;52.878;6.168;2023-04-25T02:01:52;20.70;;;4.03;;
59147;SDS011;44930;52.878;6.168;2023-04-25T02:04:18;14.15;;;3.55;;
59147;SDS011;44930;52.878;6.168;2023-04-25T02:06:43;12.43;;;2.92;;
59147;SDS011;44930;52.878;6.168;2023-04-25T02:09:09;19.75;;;5.40;;
59147;SDS011;44930;52.878;6.168;2023-04-25T02:11:34;11.77;;;2.70;;
59147;SDS011;44930;52.878;6.168;2023-04-25T02:14:00;13.98;;;2.72;;
59147;SDS011;44930;52.878;6.168;2023-04-25T02:16:25;15.02;;;2.60;;
59147;SDS011;44930;52.878;6.168;2023-04-25T02:18:51;9.60;;;2.60;;
59147;SDS011;44930;52.878;6.168;2023-04-25T02:21:17;22.35;;;3.83;;
59147;SDS011;44930;52.878;6.168;2023-04-25T02:23:43;13.05;;;2.30;;
59147;SDS011;44930;52.878;6.168;2023-04-25T02:26:10;13.82;;;2.63;;
59147;SDS011;44930;52.878;6.168;2023-04-25T02:28:36;19.88;;;5.03;;
59147;SDS011;44930;52.878;6.168;2023-04-25T02:31:02;13.50;;;3.53;;
59147;SDS011;44930;52.878;6.168;2023-04-25T02:33:27;11.65;;;2.83;;
59147;SDS011;44930;52.878;6.168;2023-04-25T02:35:53;11.80;;;2.28;;
59147;SDS011;44930;52.878;6.168;2023-04-25T02:38:19;13.85;;;2.88;;
59147;SDS011;44930;52.878;6.168;2023-04-25T02:40:44;12.48;;;2.65;;
59147;SDS011;44930;52.878;6.168;2023-04-25T02:43:10;13.77;;;2.70;;
59147;SDS011;44930;52.878;6.168;2023-04-25T02:45:36;12.73;;;2.35;;
59147;SDS011;44930;52.878;6.168;2023-04-25T02:48:03;13.73;;;3.75;;
59147;SDS011;44930;52.878;6.168;2023-04-25T02:50:28;6.28;;;2.75;;
59147;SDS011;44930;52.878;6.168;2023-04-25T02:52:54;11.52;;;3.00;;
59147;SDS011;44930;52.878;6.168;2023-04-25T02:55:20;9.35;;;1.88;;
59147;SDS011;44930;52.878;6.168;2023-04-25T02:57:45;6.60;;;2.00;;
59147;SDS011;44930;52.878;6.168;2023-04-25T03:00:11;9.07;;;2.28;;
59147;SDS011;44930;52.878;6.168;2023-04-25T03:02:39;12.18;;;2.10;;
59147;SDS011;44930;52.878;6.168;2023-04-25T03:05:05;19.48;;;3.63;;
59147;SDS011;44930;52.878;6.168;2023-04-25T03:07:31;9.65;;;2.33;;
59147;SDS011;44930;52.878;6.168;2023-04-25T03:09:57;14.00;;;2.75;;
59147;SDS011;44930;52.878;6.168;2023-04-25T03:12:22;15.55;;;4.18;;
59147;SDS011;44930;52.878;6.168;2023-04-25T03:14:48;11.00;;;2.08;;
59147;SDS011;44930;52.878;6.168;2023-04-25T03:17:14;10.35;;;2.00;;
59147;SDS011;44930;52.878;6.168;2023-04-25T03:19:40;8.25;;;1.63;;
59147;SDS011;44930;52.878;6.168;2023-04-25T03:22:05;9.10;;;1.40;;
59147;SDS011;44930;52.878;6.168;2023-04-25T03:24:31;9.93;;;1.85;;
59147;SDS011;44930;52.878;6.168;2023-04-25T03:26:57;8.13;;;1.48;;
59147;SDS011;44930;52.878;6.168;2023-04-25T03:29:23;12.45;;;3.67;;
59147;SDS011;44930;52.878;6.168;2023-04-25T03:31:51;8.05;;;2.38;;
59147;SDS011;44930;52.878;6.168;2023-04-25T03:34:17;6.82;;;2.50;;
59147;SDS011;44930;52.878;6.168;2023-04-25T03:36:42;10.35;;;1.42;;
59147;SDS011;44930;52.878;6.168;2023-04-25T03:39:08;6.60;;;2.00;;
59147;SDS011;44930;52.878;6.168;2023-04-25T03:41:33;6.90;;;1.65;;
59147;SDS011;44930;52.878;6.168;2023-04-25T03:43:59;12.50;;;3.05;;
59147;SDS011;44930;52.878;6.168;2023-04-25T03:46:24;10.82;;;2.95;;
59147;SDS011;44930;52.878;6.168;2023-04-25T03:48:50;9.25;;;2.42;;
59147;SDS011;44930;52.878;6.168;2023-04-25T03:51:15;7.65;;;1.45;;
59147;SDS011;44930;52.878;6.168;2023-04-25T03:53:41;7.65;;;2.00;;
59147;SDS011;44930;52.878;6.168;2023-04-25T03:56:06;7.63;;;1.77;;
59147;SDS011;44930;52.878;6.168;2023-04-25T03:58:32;7.35;;;1.65;;
59147;SDS011;44930;52.878;6.168;2023-04-25T04:00:58;17.33;;;2.83;;
59147;SDS011;44930;52.878;6.168;2023-04-25T04:03:23;11.82;;;3.03;;
59147;SDS011;44930;52.878;6.168;2023-04-25T04:05:49;12.05;;;1.50;;
59147;SDS011;44930;52.878;6.168;2023-04-25T04:08:14;4.22;;;1.73;;
59147;SDS011;44930;52.878;6.168;2023-04-25T04:10:40;9.23;;;1.40;;
59147;SDS011;44930;52.878;6.168;2023-04-25T04:13:06;5.88;;;1.40;;
59147;SDS011;44930;52.878;6.168;2023-04-25T04:15:31;8.88;;;1.40;;
59147;SDS011;44930;52.878;6.168;2023-04-25T04:17:58;10.93;;;1.50;;
59147;SDS011;44930;52.878;6.168;2023-04-25T04:20:27;7.72;;;1.80;;
59147;SDS011;44930;52.878;6.168;2023-04-25T04:22:53;7.95;;;1.33;;
59147;SDS011;44930;52.878;6.168;2023-04-25T04:25:19;10.23;;;1.88;;
59147;SDS011;44930;52.878;6.168;2023-04-25T04:27:45;12.27;;;2.00;;
59147;SDS011;44930;52.878;6.168;2023-04-25T04:30:11;7.90;;;1.90;;
59147;SDS011;44930;52.878;6.168;2023-04-25T04:32:37;11.52;;;1.95;;
59147;SDS011;44930;52.878;6.168;2023-04-25T04:35:03;8.15;;;2.33;;
59147;SDS011;44930;52.878;6.168;2023-04-25T04:37:29;10.10;;;1.73;;
59147;SDS011;44930;52.878;6.168;2023-04-25T04:39:55;6.90;;;1.70;;
59147;SDS011;44930;52.878;6.168;2023-04-25T04:42:21;11.35;;;2.13;;
59147;SDS011;44930;52.878;6.168;2023-04-25T04:44:46;12.52;;;2.00;;
59147;SDS011;44930;52.878;6.168;2023-04-25T04:47:12;13.50;;;1.85;;
59147;SDS011;44930;52.878;6.168;2023-04-25T04:49:39;9.00;;;1.90;;
59147;SDS011;44930;52.878;6.168;2023-04-25T04:52:05;10.70;;;2.75;;
59147;SDS011;44930;52.878;6.168;2023-04-25T04:54:31;12.95;;;1.92;;
59147;SDS011;44930;52.878;6.168;2023-04-25T04:56:56;10.60;;;1.63;;
59147;SDS011;44930;52.878;6.168;2023-04-25T04:59:22;9.93;;;1.40;;
59147;SDS011;44930;52.878;6.168;2023-04-25T05:01:47;12.27;;;1.63;;
59147;SDS011;44930;52.878;6.168;2023-04-25T05:04:13;12.50;;;1.60;;
59147;SDS011;44930;52.878;6.168;2023-04-25T05:06:38;7.85;;;2.38;;
59147;SDS011;44930;52.878;6.168;2023-04-25T05:09:05;10.18;;;2.22;;
59147;SDS011;44930;52.878;6.168;2023-04-25T05:11:31;10.93;;;1.80;;
59147;SDS011;44930;52.878;6.168;2023-04-25T05:13:56;23.58;;;4.60;;
59147;SDS011;44930;52.878;6.168;2023-04-25T05:16:22;10.55;;;1.98;;
59147;SDS011;44930;52.878;6.168;2023-04-25T05:18:48;8.25;;;1.55;;
59147;SDS011;44930;52.878;6.168;2023-04-25T05:21:13;8.80;;;2.35;;
59147;SDS011;44930;52.878;6.168;2023-04-25T05:23:39;8.25;;;1.80;;
59147;SDS011;44930;52.878;6.168;2023-04-25T05:26:05;8.68;;;2.25;;
59147;SDS011;44930;52.878;6.168;2023-04-25T05:28:31;11.35;;;2.08;;
59147;SDS011;44930;52.878;6.168;2023-04-25T05:30:56;10.48;;;1.40;;
59147;SDS011;44930;52.878;6.168;2023-04-25T05:33:22;9.88;;;1.90;;
59147;SDS011;44930;52.878;6.168;2023-04-25T05:35:48;11.07;;;1.73;;
59147;SDS011;44930;52.878;6.168;2023-04-25T05:38:14;9.82;;;1.33;;
59147;SDS011;44930;52.878;6.168;2023-04-25T05:40:39;10.55;;;1.40;;
59147;SDS011;44930;52.878;6.168;2023-04-25T05:43:05;11.57;;;2.05;;
59147;SDS011;44930;52.878;6.168;2023-04-25T05:45:32;8.60;;;1.42;;
59147;SDS011;44930;52.878;6.168;2023-04-25T05:47:58;7.60;;;1.42;;
59147;SDS011;44930;52.878;6.168;2023-04-25T05:50:23;7.40;;;1.30;;
59147;SDS011;44930;52.878;6.168;2023-04-25T05:52:49;8.25;;;2.03;;
59147;SDS011;44930;52.878;6.168;2023-04-25T05:55:15;7.72;;;1.27;;
59147;SDS011;44930;52.878;6.168;2023-04-25T05:57:41;7.13;;;1.75;;
59147;SDS011;44930;52.878;6.168;2023-04-25T06:00:08;6.28;;;1.67;;
59147;SDS011;44930;52.878;6.168;2023-04-25T06:02:34;9.15;;;1.95;;
59147;SDS011;44930;52.878;6.168;2023-04-25T06:05:00;7.05;;;1.80;;
59147;SDS011;44930;52.878;6.168;2023-04-25T06:07:28;5.88;;;1.10;;
59147;SDS011;44930;52.878;6.168;2023-04-25T06:09:55;6.85;;;2.17;;
59147;SDS011;44930;52.878;6.168;2023-04-25T06:12:20;7.20;;;1.20;;
59147;SDS011;44930;52.878;6.168;2023-04-25T06:14:46;7.43;;;1.98;;
59147;SDS011;44930;52.878;6.168;2023-04-25T06:17:12;6.40;;;1.20;;
59147;SDS011;44930;52.878;6.168;2023-04-25T06:19:38;8.35;;;1.63;;
59147;SDS011;44930;52.878;6.168;2023-04-25T06:22:03;5.82;;;1.30;;
59147;SDS011;44930;52.878;6.168;2023-04-25T06:24:29;9.30;;;1.35;;
59147;SDS011;44930;52.878;6.168;2023-04-25T06:26:54;9.52;;;1.40;;
59147;SDS011;44930;52.878;6.168;2023-04-25T06:29:20;12.85;;;1.88;;
59147;SDS011;44930;52.878;6.168;2023-04-25T06:31:46;8.65;;;1.30;;
59147;SDS011;44930;52.878;6.168;2023-04-25T06:34:12;10.60;;;2.15;;
59147;SDS011;44930;52.878;6.168;2023-04-25T06:36:37;8.80;;;1.80;;
59147;SDS011;44930;52.878;6.168;2023-04-25T06:39:03;8.13;;;1.48;;
59147;SDS011;44930;52.878;6.168;2023-04-25T06:41:28;6.35;;;1.58;;
59147;SDS011;44930;52.878;6.168;2023-04-25T06:43:54;6.03;;;1.27;;
59147;SDS011;44930;52.878;6.168;2023-04-25T06:46:20;8.85;;;1.70;;
59147;SDS011;44930;52.878;6.168;2023-04-25T06:48:45;8.77;;;2.38;;
59147;SDS011;44930;52.878;6.168;2023-04-25T06:51:11;12.90;;;1.77;;
59147;SDS011;44930;52.878;6.168;2023-04-25T06:53:38;9.85;;;1.38;;
59147;SDS011;44930;52.878;6.168;2023-04-25T06:56:04;9.50;;;1.83;;
59147;SDS011;44930;52.878;6.168;2023-04-25T06:58:29;9.15;;;1.63;;
59147;SDS011;44930;52.878;6.168;2023-04-25T07:00:55;5.35;;;1.55;;
59147;SDS011;44930;52.878;6.168;2023-04-25T07:03:21;6.63;;;1.38;;
59147;SDS011;44930;52.878;6.168;2023-04-25T07:05:46;9.85;;;1.50;;
59147;SDS011;44930;52.878;6.168;2023-04-25T07:08:12;7.80;;;1.60;;
59147;SDS011;44930;52.878;6.168;2023-04-25T07:10:37;9.23;;;1.92;;
59147;SDS011;44930;52.878;6.168;2023-04-25T07:13:03;9.63;;;1.55;;
59147;SDS011;44930;52.878;6.168;2023-04-25T07:15:28;4.32;;;1.58;;
59147;SDS011;44930;52.878;6.168;2023-04-25T07:17:54;11.45;;;1.67;;
59147;SDS011;44930;52.878;6.168;2023-04-25T07:20:19;6.40;;;1.67;;
59147;SDS011;44930;52.878;6.168;2023-04-25T07:22:45;8.93;;;1.52;;
59147;SDS011;44930;52.878;6.168;2023-04-25T07:25:11;8.23;;;1.67;;
59147;SDS011;44930;52.878;6.168;2023-04-25T07:27:37;10.98;;;1.55;;
59147;SDS011;44930;52.878;6.168;2023-04-25T07:30:03;6.18;;;1.48;;
59147;SDS011;44930;52.878;6.168;2023-04-25T07:32:29;8.55;;;1.30;;
59147;SDS011;44930;52.878;6.168;2023-04-25T07:34:55;9.45;;;3.15;;
59147;SDS011;44930;52.878;6.168;2023-04-25T07:37:21;8.43;;;2.55;;
59147;SDS011;44930;52.878;6.168;2023-04-25T07:39:46;8.95;;;1.50;;
59147;SDS011;44930;52.878;6.168;2023-04-25T07:42:12;3.90;;;1.15;;
59147;SDS011;44930;52.878;6.168;2023-04-25T07:44:38;10.18;;;1.83;;
59147;SDS011;44930;52.878;6.168;2023-04-25T07:47:05;7.70;;;1.00;;
59147;SDS011;44930;52.878;6.168;2023-04-25T07:49:32;5.88;;;1.23;;
59147;SDS011;44930;52.878;6.168;2023-04-25T07:51:59;4.78;;;0.85;;
59147;SDS011;44930;52.878;6.168;2023-04-25T07:54:25;9.32;;;2.75;;
59147;SDS011;44930;52.878;6.168;2023-04-25T07:56:51;3.55;;;0.68;;
59147;SDS011;44930;52.878;6.168;2023-04-25T07:59:17;4.70;;;1.42;;
59147;SDS011;44930;52.878;6.168;2023-04-25T08:01:42;5.07;;;1.00;;
59147;SDS011;44930;52.878;6.168;2023-04-25T08:04:08;6.75;;;1.17;;
59147;SDS011;44930;52.878;6.168;2023-04-25T08:06:33;2.67;;;0.80;;
59147;SDS011;44930;52.878;6.168;2023-04-25T08:08:59;5.50;;;1.00;;
59147;SDS011;44930;52.878;6.168;2023-04-25T08:11:25;2.70;;;1.00;;
59147;SDS011;44930;52.878;6.168;2023-04-25T08:13:51;9.90;;;2.40;;
59147;SDS011;44930;52.878;6.168;2023-04-25T08:16:16;4.97;;;1.00;;
59147;SDS011;44930;52.878;6.168;2023-04-25T08:18:42;7.07;;;1.50;;
59147;SDS011;44930;52.878;6.168;2023-04-25T08:21:07;9.60;;;1.30;;
59147;SDS011;44930;52.878;6.168;2023-04-25T08:23:36;6.20;;;1.20;;
59147;SDS011;44930;52.878;6.168;2023-04-25T08:26:02;7.97;;;1.38;;
59147;SDS011;44930;52.878;6.168;2023-04-25T08:28:28;6.15;;;1.50;;
59147;SDS011;44930;52.878;6.168;2023-04-25T08:30:53;2.72;;;0.88;;
59147;SDS011;44930;52.878;6.168;2023-04-25T08:33:19;8.93;;;1.25;;
59147;SDS011;44930;52.878;6.168;2023-04-25T08:35:45;4.57;;;0.80;;
59147;SDS011;44930;52.878;6.168;2023-04-25T08:38:11;7.70;;;1.77;;
59147;SDS011;44930;52.878;6.168;2023-04-25T08:40:37;4.55;;;1.15;;
59147;SDS011;44930;52.878;6.168;2023-04-25T08:43:04;9.38;;;2.00;;
59147;SDS011;44930;52.878;6.168;2023-04-25T08:45:36;8.38;;;1.52;;
59147;SDS011;44930;52.878;6.168;2023-04-25T08:48:05;7.35;;;1.25;;
59147;SDS011;44930;52.878;6.168;2023-04-25T08:50:33;5.68;;;1.05;;
59147;SDS011;44930;52.878;6.168;2023-04-25T08:52:59;5.13;;;0.90;;
59147;SDS011;44930;52.878;6.168;2023-04-25T08:55:26;8.63;;;1.48;;
59147;SDS011;44930;52.878;6.168;2023-04-25T08:57:53;7.03;;;1.45;;
59147;SDS011;44930;52.878;6.168;2023-04-25T09:00:20;6.68;;;1.20;;
59147;SDS011;44930;52.878;6.168;2023-04-25T09:02:47;6.55;;;1.50;;
59147;SDS011;44930;52.878;6.168;2023-04-25T09:05:13;15.07;;;2.03;;
59147;SDS011;44930;52.878;6.168;2023-04-25T09:07:39;9.73;;;1.85;;
59147;SDS011;44930;52.878;6.168;2023-04-25T09:10:05;11.48;;;2.75;;
59147;SDS011;44930;52.878;6.168;2023-04-25T09:12:31;13.43;;;2.53;;
59147;SDS011;44930;52.878;6.168;2023-04-25T09:15:07;4.75;;;1.10;;
59147;SDS011;44930;52.878;6.168;2023-04-25T09:17:34;2.72;;;1.02;;
59147;SDS011;44930;52.878;6.168;2023-04-25T09:20:07;6.22;;;1.20;;
59147;SDS011;44930;52.878;6.168;2023-04-25T09:22:36;6.88;;;1.35;;
59147;SDS011;44930;52.878;6.168;2023-04-25T09:25:03;5.25;;;1.48;;
59147;SDS011;44930;52.878;6.168;2023-04-25T09:27:50;9.27;;;1.77;;
59147;SDS011;44930;52.878;6.168;2023-04-25T09:30:30;10.88;;;1.63;;
59147;SDS011;44930;52.878;6.168;2023-04-25T09:32:57;3.88;;;1.17;;
59147;SDS011;44930;52.878;6.168;2023-04-25T09:35:36;7.95;;;1.42;;
59147;SDS011;44930;52.878;6.168;2023-04-25T09:38:10;12.38;;;3.17;;
59147;SDS011;44930;52.878;6.168;2023-04-25T09:40:44;9.45;;;1.50;;
59147;SDS011;44930;52.878;6.168;2023-04-25T09:43:20;6.18;;;1.25;;
59147;SDS011;44930;52.878;6.168;2023-04-25T09:45:47;12.85;;;1.67;;
59147;SDS011;44930;52.878;6.168;2023-04-25T09:48:17;8.13;;;1.85;;
59147;SDS011;44930;52.878;6.168;2023-04-25T09:50:44;8.45;;;3.13;;
59147;SDS011;44930;52.878;6.168;2023-04-25T09:53:15;12.10;;;1.27;;
59147;SDS011;44930;52.878;6.168;2023-04-25T09:55:40;5.88;;;1.63;;
59147;SDS011;44930;52.878;6.168;2023-04-25T09:58:08;3.53;;;1.42;;
59147;SDS011;44930;52.878;6.168;2023-04-25T10:00:36;8.07;;;1.60;;
59147;SDS011;44930;52.878;6.168;2023-04-25T10:03:03;8.75;;;2.75;;
59147;SDS011;44930;52.878;6.168;2023-04-25T10:05:32;9.32;;;2.08;;
59147;SDS011;44930;52.878;6.168;2023-04-25T10:08:01;6.05;;;0.70;;
59147;SDS011;44930;52.878;6.168;2023-04-25T10:10:29;2.95;;;0.80;;
59147;SDS011;44930;52.878;6.168;2023-04-25T10:12:57;1.60;;;0.57;;
59147;SDS011;44930;52.878;6.168;2023-04-25T10:15:23;2.15;;;0.77;;
59147;SDS011;44930;52.878;6.168;2023-04-25T10:17:50;9.68;;;1.42;;
59147;SDS011;44930;52.878;6.168;2023-04-25T10:20:15;5.88;;;1.30;;
59147;SDS011;44930;52.878;6.168;2023-04-25T10:22:42;9.07;;;1.55;;
59147;SDS011;44930;52.878;6.168;2023-04-25T10:25:10;1.55;;;0.98;;
59147;SDS011;44930;52.878;6.168;2023-04-25T10:27:38;4.80;;;1.00;;
59147;SDS011;44930;52.878;6.168;2023-04-25T10:30:05;4.78;;;0.93;;
59147;SDS011;44930;52.878;6.168;2023-04-25T10:32:35;4.25;;;1.17;;
59147;SDS011;44930;52.878;6.168;2023-04-25T10:35:14;5.65;;;1.50;;
59147;SDS011;44930;52.878;6.168;2023-04-25T10:40:26;5.28;;;1.13;;
59147;SDS011;44930;52.878;6.168;2023-04-25T10:42:52;1.73;;;0.85;;
59147;SDS011;44930;52.878;6.168;2023-04-25T10:45:19;3.70;;;0.93;;
59147;SDS011;44930;52.878;6.168;2023-04-25T10:47:45;6.20;;;1.00;;
59147;SDS011;44930;52.878;6.168;2023-04-25T10:50:11;5.15;;;1.13;;
59147;SDS011;44930;52.878;6.168;2023-04-25T10:52:42;8.32;;;1.85;;
59147;SDS011;44930;52.878;6.168;2023-04-25T10:55:09;8.00;;;1.52;;
59147;SDS011;44930;52.878;6.168;2023-04-25T10:57:44;8.20;;;1.65;;
59147;SDS011;44930;52.878;6.168;2023-04-25T11:00:15;5.30;;;1.27;;
59147;SDS011;44930;52.878;6.168;2023-04-25T11:02:43;5.90;;;1.45;;
59147;SDS011;44930;52.878;6.168;2023-04-25T11:05:29;9.90;;;2.33;;
59147;SDS011;44930;52.878;6.168;2023-04-25T11:07:57;5.55;;;1.98;;
59147;SDS011;44930;52.878;6.168;2023-04-25T11:10:27;7.40;;;1.40;;
59147;SDS011;44930;52.878;6.168;2023-04-25T11:12:54;6.70;;;1.27;;
59147;SDS011;44930;52.878;6.168;2023-04-25T11:15:20;5.28;;;1.08;;
59147;SDS011;44930;52.878;6.168;2023-04-25T11:17:45;5.35;;;2.13;;
59147;SDS011;44930;52.878;6.168;2023-04-25T11:20:12;9.18;;;0.90;;
59147;SDS011;44930;52.878;6.168;2023-04-25T11:22:39;2.00;;;0.82;;
59147;SDS011;44930;52.878;6.168;2023-04-25T11:25:07;6.32;;;1.15;;
59147;SDS011;44930;52.878;6.168;2023-04-25T11:27:37;5.20;;;1.00;;
59147;SDS011;44930;52.878;6.168;2023-04-25T11:30:11;6.90;;;1.02;;
59147;SDS011;44930;52.878;6.168;2023-04-25T11:32:39;3.53;;;1.17;;
59147;SDS011;44930;52.878;6.168;2023-04-25T11:35:05;5.30;;;1.13;;
59147;SDS011;44930;52.878;6.168;2023-04-25T11:37:32;6.32;;;1.27;;
59147;SDS011;44930;52.878;6.168;2023-04-25T11:39:59;5.45;;;1.25;;
59147;SDS011;44930;52.878;6.168;2023-04-25T11:42:25;3.28;;;1.42;;
59147;SDS011;44930;52.878;6.168;2023-04-25T11:44:51;5.57;;;1.65;;
59147;SDS011;44930;52.878;6.168;2023-04-25T11:47:16;3.72;;;0.95;;
59147;SDS011;44930;52.878;6.168;2023-04-25T11:49:42;4.80;;;1.05;;
59147;SDS011;44930;52.878;6.168;2023-04-25T11:52:07;4.75;;;0.98;;
59147;SDS011;44930;52.878;6.168;2023-04-25T11:54:36;6.90;;;0.95;;
59147;SDS011;44930;52.878;6.168;2023-04-25T11:57:02;9.52;;;1.63;;
59147;SDS011;44930;52.878;6.168;2023-04-25T11:59:29;9.60;;;1.10;;
59147;SDS011;44930;52.878;6.168;2023-04-25T12:01:55;10.93;;;1.48;;
59147;SDS011;44930;52.878;6.168;2023-04-25T12:04:23;9.02;;;1.75;;
59147;SDS011;44930;52.878;6.168;2023-04-25T12:06:50;4.05;;;1.42;;
59147;SDS011;44930;52.878;6.168;2023-04-25T12:09:30;3.95;;;0.95;;
59147;SDS011;44930;52.878;6.168;2023-04-25T12:11:58;3.55;;;0.93;;
59147;SDS011;44930;52.878;6.168;2023-04-25T12:14:28;3.88;;;1.10;;
59147;SDS011;44930;52.878;6.168;2023-04-25T12:16:56;5.05;;;0.98;;
59147;SDS011;44930;52.878;6.168;2023-04-25T12:19:23;7.60;;;1.33;;
59147;SDS011;44930;52.878;6.168;2023-04-25T12:21:49;5.57;;;0.98;;
59147;SDS011;44930;52.878;6.168;2023-04-25T12:24:22;6.30;;;1.30;;
59147;SDS011;44930;52.878;6.168;2023-04-25T12:27:03;6.63;;;1.40;;
59147;SDS011;44930;52.878;6.168;2023-04-25T12:29:31;7.05;;;1.95;;
59147;SDS011;44930;52.878;6.168;2023-04-25T12:31:57;4.95;;;1.17;;
59147;SDS011;44930;52.878;6.168;2023-04-25T12:34:24;6.50;;;1.60;;
59147;SDS011;44930;52.878;6.168;2023-04-25T12:36:50;11.32;;;1.55;;
59147;SDS011;44930;52.878;6.168;2023-04-25T12:41:47;10.95;;;2.70;;
59147;SDS011;44930;52.878;6.168;2023-04-25T12:44:13;7.15;;;1.67;;
59147;SDS011;44930;52.878;6.168;2023-04-25T12:46:39;5.78;;;1.40;;
59147;SDS011;44930;52.878;6.168;2023-04-25T12:49:05;9.07;;;1.92;;
59147;SDS011;44930;52.878;6.168;2023-04-25T12:51:33;11.57;;;1.88;;
59147;SDS011;44930;52.878;6.168;2023-04-25T12:53:59;8.20;;;1.40;;
59147;SDS011;44930;52.878;6.168;2023-04-25T12:56:25;11.30;;;1.30;;
59147;SDS011;44930;52.878;6.168;2023-04-25T12:58:55;8.43;;;2.42;;
59147;SDS011;44930;52.878;6.168;2023-04-25T13:01:21;11.63;;;2.15;;
59147;SDS011;44930;52.878;6.168;2023-04-25T13:03:47;6.60;;;1.77;;
59147;SDS011;44930;52.878;6.168;2023-04-25T13:06:14;5.68;;;1.23;;
59147;SDS011;44930;52.878;6.168;2023-04-25T13:08:39;8.20;;;1.90;;
59147;SDS011;44930;52.878;6.168;2023-04-25T13:11:06;5.20;;;1.15;;
59147;SDS011;44930;52.878;6.168;2023-04-25T13:13:31;5.43;;;1.02;;
59147;SDS011;44930;52.878;6.168;2023-04-25T13:15:59;5.28;;;1.38;;
59147;SDS011;44930;52.878;6.168;2023-04-25T13:18:29;6.07;;;1.13;;
59147;SDS011;44930;52.878;6.168;2023-04-25T13:20:55;8.38;;;1.40;;
59147;SDS011;44930;52.878;6.168;2023-04-25T13:23:21;5.57;;;1.42;;
59147;SDS011;44930;52.878;6.168;2023-04-25T13:25:47;7.07;;;1.30;;
59147;SDS011;44930;52.878;6.168;2023-04-25T13:28:13;5.30;;;1.08;;
59147;SDS011;44930;52.878;6.168;2023-04-25T13:30:39;3.50;;;0.93;;
59147;SDS011;44930;52.878;6.168;2023-04-25T13:33:05;4.03;;;1.67;;
59147;SDS011;44930;52.878;6.168;2023-04-25T13:35:31;6.47;;;1.02;;
59147;SDS011;44930;52.878;6.168;2023-04-25T13:37:58;6.72;;;1.35;;
59147;SDS011;44930;52.878;6.168;2023-04-25T13:40:24;4.13;;;0.88;;
59147;SDS011;44930;52.878;6.168;2023-04-25T13:42:49;7.70;;;1.23;;
59147;SDS011;44930;52.878;6.168;2023-04-25T13:45:16;6.00;;;1.02;;
59147;SDS011;44930;52.878;6.168;2023-04-25T13:47:41;5.82;;;0.80;;
59147;SDS011;44930;52.878;6.168;2023-04-25T13:50:07;9.57;;;1.85;;
59147;SDS011;44930;52.878;6.168;2023-04-25T13:52:33;6.40;;;0.98;;
59147;SDS011;44930;52.878;6.168;2023-04-25T13:54:58;9.40;;;1.67;;
59147;SDS011;44930;52.878;6.168;2023-04-25T13:57:24;13.48;;;1.33;;
59147;SDS011;44930;52.878;6.168;2023-04-25T13:59:50;3.17;;;0.88;;
59147;SDS011;44930;52.878;6.168;2023-04-25T14:02:16;1.80;;;0.57;;
59147;SDS011;44930;52.878;6.168;2023-04-25T14:04:42;6.75;;;1.00;;
59147;SDS011;44930;52.878;6.168;2023-04-25T14:07:08;7.55;;;1.27;;
59147;SDS011;44930;52.878;6.168;2023-04-25T14:09:35;3.75;;;1.00;;
59147;SDS011;44930;52.878;6.168;2023-04-25T14:12:01;7.55;;;1.45;;
59147;SDS011;44930;52.878;6.168;2023-04-25T14:14:27;5.90;;;1.20;;
59147;SDS011;44930;52.878;6.168;2023-04-25T14:16:53;3.05;;;1.08;;
59147;SDS011;44930;52.878;6.168;2023-04-25T14:19:19;7.22;;;1.30;;
59147;SDS011;44930;52.878;6.168;2023-04-25T14:21:46;7.85;;;1.33;;
59147;SDS011;44930;52.878;6.168;2023-04-25T14:24:11;6.63;;;1.17;;
59147;SDS011;44930;52.878;6.168;2023-04-25T14:26:38;2.53;;;1.10;;
59147;SDS011;44930;52.878;6.168;2023-04-25T14:29:06;5.10;;;1.27;;
59147;SDS011;44930;52.878;6.168;2023-04-25T14:31:33;7.70;;;1.95;;
59147;SDS011;44930;52.878;6.168;2023-04-25T14:33:59;10.15;;;2.05;;
59147;SDS011;44930;52.878;6.168;2023-04-25T14:36:26;5.80;;;1.30;;
59147;SDS011;44930;52.878;6.168;2023-04-25T14:38:53;6.50;;;1.77;;
59147;SDS011;44930;52.878;6.168;2023-04-25T14:41:18;7.63;;;1.40;;
59147;SDS011;44930;52.878;6.168;2023-04-25T14:43:44;6.90;;;1.50;;
59147;SDS011;44930;52.878;6.168;2023-04-25T14:46:10;11.25;;;2.08;;